Time;durP1;ratioP1;P1;durP2;ratioP2;P2;SDS_P1;SDS_P2;PMS_P1;PMS_P2;Temp;Humidity;BMP_temperature;BMP_pressure;BME280_temperature;BME280_humidity;BME280_pressure;Samples;Min_cycle;Max_cycle;Signal;HPM_P1;HPM_P2
2022/07/28 00:00:29;;;;;;;1.33;0.80;;;11.50;80.90;11.40;100899.00;;;;4955939;28;109849;-64
2022/07/28 00:02:54;;;;;;;0.50;0.50;;;11.40;81.40;11.40;100901.00;;;;4956931;28;87946;-64
2022/07/28 00:05:20;;;;;;;1.27;0.60;;;11.40;82.00;11.30;100914.00;;;;4957036;28;89027;-64
2022/07/28 00:07:46;;;;;;;0.60;0.60;;;11.40;82.50;11.40;100909.00;;;;4956572;28;87764;-64
2022/07/28 00:10:12;;;;;;;1.87;0.87;;;11.40;82.90;11.40;100910.00;;;;4956544;28;109077;-64
2022/07/28 00:12:38;;;;;;;0.47;0.37;;;11.40;83.40;11.30;100906.00;;;;4955797;28;116936;-64
2022/07/28 00:15:04;;;;;;;2.63;0.80;;;11.40;83.80;11.30;100906.00;;;;4955745;28;120059;-64
2022/07/28 00:17:30;;;;;;;0.47;0.47;;;11.30;84.10;11.30;100912.00;;;;4957228;28;91150;-64
2022/07/28 00:19:56;;;;;;;0.97;0.53;;;11.50;84.70;11.30;100922.00;;;;4957968;28;88536;-64
2022/07/28 00:22:22;;;;;;;1.90;1.20;;;11.30;85.00;11.20;100911.00;;;;4956316;28;112951;-64
2022/07/28 00:24:48;;;;;;;1.07;0.40;;;11.30;85.40;11.20;100911.00;;;;4955861;28;101049;-63
2022/07/28 00:27:15;;;;;;;0.70;0.70;;;11.30;85.70;11.20;100910.00;;;;4955273;28;109538;-65
2022/07/28 00:29:41;;;;;;;0.93;0.80;;;11.20;86.00;11.10;100915.00;;;;4957109;28;87141;-64
2022/07/28 00:32:07;;;;;;;0.80;0.80;;;11.10;86.30;11.10;100919.00;;;;4954733;28;118024;-64
2022/07/28 00:34:32;;;;;;;1.17;0.77;;;11.10;86.70;11.00;100920.00;;;;4955222;28;116745;-64
2022/07/28 00:36:58;;;;;;;0.40;0.40;;;11.10;87.20;11.00;100922.00;;;;4955269;28;110939;-64
2022/07/28 00:39:24;;;;;;;0.57;0.40;;;11.10;87.80;11.00;100924.00;;;;4955195;28;109403;-64
2022/07/28 00:41:49;;;;;;;2.10;0.60;;;11.00;88.40;10.90;100920.00;;;;4955111;28;118050;-64
2022/07/28 00:44:15;;;;;;;0.53;0.50;;;11.00;89.00;10.90;100920.00;;;;4954374;28;116754;-64
2022/07/28 00:46:41;;;;;;;1.93;0.87;;;10.90;89.90;10.80;100926.00;;;;4955600;28;87673;-64
2022/07/28 00:49:07;;;;;;;1.03;0.83;;;10.90;90.30;10.80;100904.00;;;;4957029;28;87524;-64
2022/07/28 00:51:33;;;;;;;0.77;0.70;;;10.80;90.90;10.70;100908.00;;;;4954973;28;118782;-64
2022/07/28 00:53:59;;;;;;;2.13;0.60;;;10.80;91.60;10.70;100901.00;;;;4955339;28;117055;-64
2022/07/28 00:56:25;;;;;;;1.07;0.97;;;10.80;91.90;10.70;100898.00;;;;4955355;28;98308;-64
2022/07/28 00:58:50;;;;;;;1.80;0.60;;;10.70;92.20;10.70;100904.00;;;;4936520;28;107990;-64
2022/07/28 01:01:18;;;;;;;1.93;0.90;;;10.70;92.60;10.60;100905.00;;;;4954932;28;118927;-64
2022/07/28 01:03:49;;;;;;;0.83;0.80;;;10.70;92.90;10.60;100910.00;;;;4937507;28;88683;-62
2022/07/28 01:06:52;;;;;;;2.43;0.90;;;10.60;93.00;10.50;100904.00;;;;4955821;28;87775;-62
2022/07/28 01:09:41;;;;;;;0.87;0.60;;;10.60;93.40;10.50;100908.00;;;;4955799;28;87781;-62
2022/07/28 01:12:36;;;;;;;1.40;0.73;;;10.60;93.50;10.50;100910.00;;;;4937230;28;88506;-62
2022/07/28 01:15:57;;;;;;;0.60;0.60;;;10.60;93.70;10.40;100904.00;;;;4937141;28;107779;-62
2022/07/28 01:18:32;;;;;;;2.00;0.87;;;10.50;93.60;10.40;100908.00;;;;4839446;28;87834;-62
2022/07/28 01:21:13;;;;;;;1.90;0.87;;;10.50;94.00;10.40;100902.00;;;;4936935;28;87176;-62
2022/07/28 01:24:04;;;;;;;0.97;0.87;;;10.40;94.20;10.30;100895.00;;;;4936738;28;88946;-63
2022/07/28 01:26:51;;;;;;;1.17;1.07;;;10.40;94.50;10.30;100900.00;;;;4936330;28;101009;-63
2022/07/28 01:29:57;;;;;;;1.77;0.67;;;10.40;94.70;10.20;100901.00;;;;4936061;28;97033;-62
2022/07/28 01:32:26;;;;;;;1.17;1.07;;;10.40;94.80;10.30;100898.00;;;;4937910;28;87657;-62
2022/07/28 01:35:07;;;;;;;0.70;0.70;;;10.30;94.80;10.30;100904.00;;;;4937203;28;88216;-62
2022/07/28 01:37:40;;;;;;;1.10;1.00;;;10.30;94.90;10.20;100899.00;;;;4933825;28;104558;-62
2022/07/28 01:40:08;;;;;;;1.40;0.90;;;10.30;95.00;10.20;100892.00;;;;4937422;28;87870;-63
2022/07/28 01:42:44;;;;;;;1.13;1.03;;;10.20;95.00;10.10;100901.00;;;;4937042;28;95690;-63
2022/07/28 01:45:11;;;;;;;3.20;1.33;;;10.20;95.30;10.10;100902.00;;;;4954492;28;110636;-63
2022/07/28 01:47:40;;;;;;;0.80;0.80;;;10.40;95.30;10.00;100902.00;;;;4956186;28;88059;-63
2022/07/28 01:50:10;;;;;;;1.40;0.80;;;10.10;95.30;10.00;100909.00;;;;4935705;28;103155;-62
2022/07/28 01:52:37;;;;;;;0.70;0.70;;;10.10;95.50;9.90;100906.00;;;;4937446;28;87992;-63
2022/07/28 01:55:05;;;;;;;3.23;1.10;;;10.00;95.70;9.90;100912.00;;;;4935724;28;90038;-62
2022/07/28 01:57:32;;;;;;;1.20;0.97;;;9.90;95.80;9.80;100900.00;;;;4935799;28;111989;-62
2022/07/28 01:59:59;;;;;;;0.60;0.60;;;9.90;95.90;9.70;100900.00;;;;4936197;28;109672;-62
2022/07/28 02:02:28;;;;;;;1.10;0.87;;;9.80;96.00;9.70;100905.00;;;;4937261;28;87836;-62
2022/07/28 02:04:56;;;;;;;3.90;0.80;;;9.70;96.20;9.60;100904.00;;;;4955582;28;88713;-62
2022/07/28 02:07:24;;;;;;;0.57;0.50;;;9.70;96.30;9.60;100901.00;;;;4936549;28;109201;-62
2022/07/28 02:09:50;;;;;;;1.70;0.70;;;9.60;96.50;9.50;100900.00;;;;4935814;28;96313;-62
2022/07/28 02:12:18;;;;;;;0.77;0.70;;;9.60;96.70;9.50;100894.00;;;;4936510;28;108940;-62
2022/07/28 02:14:48;;;;;;;0.60;0.60;;;9.50;96.70;9.50;100894.00;;;;4936891;28;94409;-62
2022/07/28 02:17:20;;;;;;;2.50;1.20;;;9.50;96.90;9.40;100903.00;;;;4936184;28;105746;-63
2022/07/28 02:19:47;;;;;;;3.53;0.93;;;9.50;97.00;9.40;100894.00;;;;4935552;28;95913;-60
2022/07/28 02:22:15;;;;;;;1.07;0.80;;;9.40;97.00;9.30;100898.00;;;;4936837;28;87723;-62
2022/07/28 02:24:42;;;;;;;0.67;0.60;;;9.40;97.10;9.30;100899.00;;;;4935462;28;89069;-62
2022/07/28 02:27:18;;;;;;;0.73;0.57;;;9.40;97.40;9.20;100905.00;;;;4954362;28;108878;-63
2022/07/28 02:30:03;;;;;;;1.47;1.03;;;9.30;97.40;9.20;100900.00;;;;4954472;28;87885;-62
2022/07/28 02:32:37;;;;;;;0.87;0.73;;;9.30;97.50;9.20;100899.00;;;;4936735;28;87727;-62
2022/07/28 02:35:28;;;;;;;1.47;1.00;;;9.20;97.60;9.10;100898.00;;;;4954477;28;88850;-62
2022/07/28 02:38:01;;;;;;;0.37;0.37;;;9.20;97.70;9.00;100905.00;;;;4954752;28;96873;-62
2022/07/28 02:40:35;;;;;;;4.20;0.70;;;9.10;97.80;9.00;100904.00;;;;4936367;28;88056;-62
2022/07/28 02:43:06;;;;;;;0.50;0.50;;;9.10;98.00;8.90;100903.00;;;;4935896;28;87861;-62
2022/07/28 02:45:34;;;;;;;1.43;0.83;;;9.00;98.20;8.90;100898.00;;;;4935496;28;89792;-62
2022/07/28 02:48:08;;;;;;;1.67;0.97;;;8.90;98.40;8.80;100904.00;;;;4935804;28;105864;-62
2022/07/28 02:50:34;;;;;;;0.77;0.77;;;8.90;98.60;8.80;100907.00;;;;4935641;28;102522;-62
2022/07/28 02:53:03;;;;;;;1.17;0.70;;;8.90;98.70;8.80;100912.00;;;;4954029;28;87751;-62
2022/07/28 02:55:30;;;;;;;1.37;0.50;;;8.90;99.00;8.80;100904.00;;;;4954002;28;88821;-62
2022/07/28 02:57:58;;;;;;;0.87;0.70;;;8.90;99.10;8.80;100902.00;;;;4954602;28;89012;-62
2022/07/28 03:00:25;;;;;;;1.03;0.93;;;8.80;99.30;8.80;100920.00;;;;4936687;28;87814;-62
2022/07/28 03:02:53;;;;;;;0.67;0.67;;;8.80;99.30;8.70;100914.00;;;;4936828;28;87682;-62
2022/07/28 03:05:19;;;;;;;0.67;0.67;;;8.80;99.50;8.70;100908.00;;;;4935851;28;100705;-62
2022/07/28 03:07:45;;;;;;;1.23;0.70;;;8.80;99.70;8.80;100914.00;;;;4953570;28;117199;-62
2022/07/28 03:10:37;;;;;;;1.53;1.00;;;8.80;99.90;8.70;100919.00;;;;4956782;28;89009;-62
2022/07/28 03:13:07;;;;;;;1.67;1.00;;;8.80;99.90;8.80;100931.00;;;;4952793;28;108833;-62
2022/07/28 03:15:35;;;;;;;1.40;0.73;;;8.80;99.90;8.80;100932.00;;;;4957625;28;88125;-62
2022/07/28 03:18:03;;;;;;;0.30;0.30;;;8.80;99.90;8.70;100923.00;;;;4957689;28;88137;-63
2022/07/28 03:20:29;;;;;;;1.60;0.90;;;8.80;99.90;8.70;100920.00;;;;4957131;28;95682;-62
2022/07/28 03:22:57;;;;;;;1.20;0.80;;;8.80;99.90;8.70;100930.00;;;;4957418;28;96936;-62
2022/07/28 03:25:37;;;;;;;1.87;0.70;;;8.80;99.90;8.70;100926.00;;;;4956358;28;89016;-62
2022/07/28 03:28:07;;;;;;;2.83;1.33;;;8.80;99.90;8.70;100931.00;;;;4957511;28;88669;-62
2022/07/28 03:30:39;;;;;;;1.00;1.00;;;8.70;99.90;8.60;100944.00;;;;4940194;28;87862;-62
2022/07/28 03:33:06;;;;;;;0.60;0.60;;;8.70;99.90;8.60;100943.00;;;;4939314;28;87885;-62
2022/07/28 03:35:34;;;;;;;1.40;0.77;;;8.70;99.90;8.60;100942.00;;;;4937284;28;117876;-62
2022/07/28 03:38:08;;;;;;;1.33;0.90;;;8.70;99.90;8.60;100942.00;;;;4939308;28;87836;-62
2022/07/28 03:40:36;;;;;;;5.40;1.13;;;8.60;99.90;8.60;100941.00;;;;4939478;28;87880;-62
2022/07/28 03:43:05;;;;;;;1.43;0.97;;;8.60;99.90;8.60;100953.00;;;;4921776;28;108231;-62
2022/07/28 03:45:31;;;;;;;0.90;0.87;;;8.60;99.90;8.60;100940.00;;;;4939285;28;89073;-62
2022/07/28 03:47:58;;;;;;;1.00;0.77;;;8.60;99.90;8.60;100945.00;;;;4957996;28;88094;-63
2022/07/28 03:50:27;;;;;;;0.97;0.87;;;8.60;99.90;8.60;100950.00;;;;4957346;28;96650;-62
2022/07/28 03:52:54;;;;;;;2.20;0.87;;;8.60;99.90;8.60;100948.00;;;;4958197;28;87172;-62
2022/07/28 03:55:20;;;;;;;0.97;0.87;;;8.60;99.90;8.60;100940.00;;;;4958917;28;87929;-62
2022/07/28 03:57:46;;;;;;;1.80;1.07;;;8.60;99.90;8.60;100959.00;;;;4956728;28;107391;-62
2022/07/28 04:00:15;;;;;;;1.80;1.40;;;8.70;99.90;8.70;100942.00;;;;4956734;28;92473;-62
2022/07/28 04:02:42;;;;;;;2.30;1.00;;;8.70;99.90;8.70;100948.00;;;;4957028;28;87798;-62
2022/07/28 04:05:13;;;;;;;0.90;0.83;;;8.70;99.90;8.70;100955.00;;;;4957076;28;87971;-62
2022/07/28 04:07:40;;;;;;;2.37;0.90;;;8.80;99.90;8.80;100945.00;;;;4957432;28;102285;-62
2022/07/28 04:10:08;;;;;;;1.20;0.80;;;8.80;99.90;8.90;100944.00;;;;4957560;28;87812;-62
2022/07/28 04:13:03;;;;;;;2.30;1.27;;;8.90;99.90;8.90;100948.00;;;;4938321;28;99976;-62
2022/07/28 04:15:31;;;;;;;1.20;1.00;;;8.90;99.90;9.00;100951.00;;;;4935878;28;114943;-61
2022/07/28 04:17:57;;;;;;;1.73;1.00;;;9.00;99.90;9.10;100951.00;;;;4957747;28;87397;-62
2022/07/28 04:20:25;;;;;;;1.03;0.80;;;9.00;99.90;9.10;100946.00;;;;4955077;28;87631;-62
2022/07/28 04:22:52;;;;;;;1.27;0.87;;;9.10;99.90;9.20;100945.00;;;;4957474;28;88037;-62
2022/07/28 04:25:21;;;;;;;1.17;0.73;;;9.20;99.90;9.30;100945.00;;;;4956175;28;109991;-62
2022/07/28 04:27:47;;;;;;;0.67;0.67;;;9.30;99.90;9.40;100946.00;;;;4955902;28;109299;-62
2022/07/28 04:30:17;;;;;;;0.77;0.77;;;9.30;99.90;9.50;100961.00;;;;4956119;28;97206;-61
2022/07/28 04:32:51;;;;;;;0.70;0.50;;;9.40;99.90;9.70;100954.00;;;;4956728;28;88029;-62
2022/07/28 04:35:18;;;;;;;0.50;0.50;;;9.60;99.90;9.80;100952.00;;;;4956914;28;88670;-61
2022/07/28 04:37:45;;;;;;;0.93;0.73;;;9.70;99.90;10.00;100957.00;;;;4956214;28;88742;-61
2022/07/28 04:40:12;;;;;;;7.50;0.90;;;9.90;99.90;10.10;100953.00;;;;4952768;28;87826;-62
2022/07/28 04:42:38;;;;;;;0.80;0.70;;;10.10;99.90;10.30;100949.00;;;;4949705;28;87026;-62
2022/07/28 04:45:08;;;;;;;2.10;0.93;;;10.20;99.90;10.40;100954.00;;;;4952987;28;88881;-62
2022/07/28 04:47:34;;;;;;;1.23;0.93;;;10.40;99.90;10.50;100953.00;;;;4952942;28;87831;-62
2022/07/28 04:50:00;;;;;;;1.07;0.80;;;10.50;99.90;10.70;100958.00;;;;4940172;28;88670;-62
2022/07/28 04:52:25;;;;;;;1.57;1.20;;;10.50;99.90;10.80;100965.00;;;;4927566;28;88036;-61
2022/07/28 04:54:52;;;;;;;2.87;1.83;;;10.80;99.90;11.00;100962.00;;;;4947516;28;90581;-61
2022/07/28 04:57:17;;;;;;;1.57;1.13;;;11.00;99.90;11.20;100957.00;;;;4933376;28;88064;-61
2022/07/28 04:59:44;;;;;;;0.67;0.67;;;11.10;99.90;11.40;100951.00;;;;4936659;28;87702;-61
2022/07/28 05:02:11;;;;;;;1.23;0.63;;;11.30;99.90;11.60;100953.00;;;;4936619;28;88095;-61
2022/07/28 05:04:37;;;;;;;1.77;1.20;;;11.50;99.90;11.80;100945.00;;;;4936474;28;87804;-61
2022/07/28 05:07:04;;;;;;;1.17;1.00;;;11.70;99.90;12.10;100939.00;;;;4930767;28;108227;-61
2022/07/28 05:09:30;;;;;;;1.07;0.97;;;11.90;99.60;12.30;100955.00;;;;4956525;28;87697;-61
2022/07/28 05:11:56;;;;;;;0.60;0.60;;;12.20;99.30;12.50;100955.00;;;;4956242;28;87604;-61
2022/07/28 05:14:22;;;;;;;6.50;0.83;;;12.40;99.00;12.70;100955.00;;;;4955262;28;108644;-61
2022/07/28 05:16:48;;;;;;;1.70;1.33;;;12.60;98.70;13.00;100950.00;;;;4956070;28;104342;-61
2022/07/28 05:19:14;;;;;;;3.07;1.37;;;12.80;98.40;13.20;100954.00;;;;4956850;28;87894;-61
2022/07/28 05:21:40;;;;;;;3.90;1.13;;;13.00;98.10;13.40;100956.00;;;;4955740;28;98628;-61
2022/07/28 05:24:06;;;;;;;2.27;1.13;;;13.20;98.10;13.60;100955.00;;;;4955453;28;117290;-61
2022/07/28 05:26:32;;;;;;;0.83;0.80;;;13.50;97.40;13.80;100957.00;;;;4937072;28;90287;-61
2022/07/28 05:28:57;;;;;;;0.70;0.70;;;13.70;97.00;14.10;100955.00;;;;4955019;28;111103;-62
2022/07/28 05:31:23;;;;;;;1.57;1.00;;;13.90;96.70;14.30;100960.00;;;;4955103;28;104306;-61
2022/07/28 05:33:49;;;;;;;2.33;0.97;;;14.10;96.30;14.50;100966.00;;;;4954608;28;117437;-61
2022/07/28 05:36:15;;;;;;;1.27;1.03;;;14.30;95.80;14.70;100967.00;;;;4956049;28;88736;-63
2022/07/28 05:38:40;;;;;;;1.00;0.80;;;14.60;95.30;14.90;100975.00;;;;4954599;28;105383;-64
2022/07/28 05:41:06;;;;;;;3.90;1.10;;;14.70;94.80;15.10;100978.00;;;;4955093;28;108321;-63
2022/07/28 05:43:34;;;;;;;0.77;0.50;;;14.90;94.50;15.30;100967.00;;;;4955299;28;107064;-63
2022/07/28 05:45:59;;;;;;;0.70;0.70;;;15.10;93.90;15.40;100979.00;;;;4938437;28;88331;-61
2022/07/28 05:48:25;;;;;;;1.70;1.00;;;15.20;93.50;15.60;100973.00;;;;4955366;28;110091;-62
2022/07/28 05:50:53;;;;;;;1.35;0.98;;;15.40;93.10;15.70;100978.00;;;;4954760;28;109477;-62
2022/07/28 05:53:19;;;;;;;1.00;0.90;;;15.60;92.80;15.90;100983.00;;;;4955242;28;87870;-63
2022/07/28 05:55:45;;;;;;;2.50;0.70;;;15.80;92.20;16.00;100985.00;;;;4955964;28;87604;-62
2022/07/28 05:58:11;;;;;;;0.68;0.60;;;15.80;91.90;16.10;100986.00;;;;4956096;28;87678;-62
2022/07/28 06:00:37;;;;;;;2.00;0.57;;;15.90;91.00;16.20;100984.00;;;;4937456;28;88190;-62
2022/07/28 06:03:03;;;;;;;1.08;0.90;;;16.00;90.60;16.20;100992.00;;;;4954653;28;100450;-63
2022/07/28 06:05:31;;;;;;;1.90;1.30;;;16.10;90.30;16.30;100991.00;;;;4955097;28;89666;-63
2022/07/28 06:07:58;;;;;;;0.50;0.50;;;16.10;90.10;16.40;100985.00;;;;4955548;28;87893;-63
2022/07/28 06:10:26;;;;;;;2.85;1.20;;;16.20;90.00;16.50;100984.00;;;;4937361;28;87829;-63
2022/07/28 06:12:56;;;;;;;3.08;0.93;;;16.30;89.90;16.70;100982.00;;;;4954921;28;89157;-63
2022/07/28 06:15:26;;;;;;;0.75;0.63;;;16.50;89.50;17.00;100994.00;;;;4955753;28;88424;-63
2022/07/28 06:17:54;;;;;;;1.17;1.08;;;16.70;88.50;17.30;100983.00;;;;4955767;28;87874;-63
2022/07/28 06:20:24;;;;;;;0.77;0.70;;;17.10;87.50;17.60;100981.00;;;;4956088;28;87054;-63
2022/07/28 06:22:54;;;;;;;1.95;0.85;;;17.40;87.00;18.10;100985.00;;;;4955668;28;88223;-63
2022/07/28 06:25:22;;;;;;;2.47;0.80;;;17.70;86.20;18.40;100994.00;;;;4953258;28;117494;-63
2022/07/28 06:27:56;;;;;;;4.22;1.33;;;18.10;85.00;18.80;100995.00;;;;4955006;28;88590;-62
2022/07/28 06:30:22;;;;;;;1.95;0.75;;;18.40;83.80;19.00;100997.00;;;;4950909;28;103014;-63
2022/07/28 06:32:48;;;;;;;0.68;0.68;;;18.70;81.80;19.20;101001.00;;;;4954308;28;96937;-62
2022/07/28 06:35:16;;;;;;;0.30;0.30;;;18.90;81.30;19.40;101005.00;;;;4955738;28;88006;-63
2022/07/28 06:37:46;;;;;;;0.65;0.55;;;19.10;79.80;19.50;100999.00;;;;4955381;28;87599;-63
2022/07/28 06:40:14;;;;;;;1.40;1.05;;;19.30;79.30;19.80;101004.00;;;;4955006;28;90177;-63
2022/07/28 06:42:41;;;;;;;1.17;0.52;;;19.50;78.60;19.90;100996.00;;;;4956722;28;88314;-63
2022/07/28 06:45:09;;;;;;;0.95;0.70;;;19.70;76.90;20.00;100998.00;;;;4959411;28;88262;-63
2022/07/28 06:47:35;;;;;;;1.50;0.80;;;19.70;75.10;20.00;101008.00;;;;4958479;28;87925;-63
2022/07/28 06:50:02;;;;;;;0.95;0.60;;;19.80;75.00;20.10;101001.00;;;;4957964;28;92544;-63
2022/07/28 06:52:28;;;;;;;0.40;0.40;;;19.90;75.00;20.20;101001.00;;;;4958305;28;89968;-63
2022/07/28 06:54:54;;;;;;;0.63;0.63;;;20.00;74.00;20.30;101004.00;;;;4958071;28;92217;-63
2022/07/28 06:57:21;;;;;;;2.22;0.90;;;20.10;73.80;20.40;101007.00;;;;4957374;28;108924;-63
2022/07/28 06:59:48;;;;;;;1.13;0.40;;;20.20;72.70;20.50;101003.00;;;;4958739;28;88065;-62
2022/07/28 07:02:15;;;;;;;1.00;0.90;;;20.20;70.90;20.60;100997.00;;;;4958462;28;88186;-63
2022/07/28 07:04:41;;;;;;;2.63;0.73;;;20.30;71.00;20.70;101003.00;;;;4958319;28;87971;-63
2022/07/28 07:07:07;;;;;;;0.73;0.73;;;20.40;70.50;20.80;100993.00;;;;4957605;28;90543;-62
2022/07/28 07:09:33;;;;;;;0.60;0.60;;;20.50;70.10;21.00;100999.00;;;;4948773;28;87056;-63
2022/07/28 07:11:59;;;;;;;0.80;0.70;;;20.70;70.00;21.20;100999.00;;;;4937501;28;109214;-63
2022/07/28 07:14:25;;;;;;;2.53;0.80;;;20.90;69.60;21.50;100999.00;;;;4940176;28;87816;-63
2022/07/28 07:16:51;;;;;;;0.52;0.52;;;21.20;68.90;21.70;101001.00;;;;4930882;28;89740;-62
2022/07/28 07:19:16;;;;;;;0.45;0.45;;;21.40;68.00;21.90;101009.00;;;;4938053;28;87855;-63
2022/07/28 07:21:42;;;;;;;1.98;0.80;;;21.50;67.20;22.00;101001.00;;;;4937459;28;118171;-63
2022/07/28 07:24:10;;;;;;;0.40;0.40;;;21.70;66.10;22.20;100998.00;;;;4937224;28;104075;-64
2022/07/28 07:26:36;;;;;;;1.13;0.60;;;21.90;65.50;22.40;101002.00;;;;4938359;28;87918;-62
2022/07/28 07:29:03;;;;;;;0.50;0.50;;;22.10;65.00;22.50;100998.00;;;;4948728;28;88602;-62
2022/07/28 07:31:29;;;;;;;0.40;0.40;;;22.20;64.20;22.80;100998.00;;;;4957242;28;109271;-63
2022/07/28 07:33:54;;;;;;;0.50;0.50;;;22.40;63.30;23.00;100992.00;;;;4956993;28;116456;-63
2022/07/28 07:36:21;;;;;;;0.88;0.75;;;22.60;62.10;23.20;100994.00;;;;4957763;28;100512;-63
2022/07/28 07:38:46;;;;;;;0.60;0.60;;;22.90;61.50;23.50;100998.00;;;;4957439;28;87836;-63
2022/07/28 07:41:13;;;;;;;0.80;0.80;;;23.10;59.60;23.60;100997.00;;;;4956351;28;119448;-63
2022/07/28 07:43:38;;;;;;;3.40;0.70;;;23.20;58.60;23.70;100994.00;;;;4956557;28;89933;-63
2022/07/28 07:46:06;;;;;;;1.15;0.90;;;23.30;58.20;23.80;101002.00;;;;4958441;28;87707;-63
2022/07/28 07:48:32;;;;;;;1.10;0.85;;;23.50;57.90;24.00;101007.00;;;;4958241;28;88065;-63
2022/07/28 07:50:57;;;;;;;2.08;0.70;;;23.70;57.30;24.20;101000.00;;;;4956269;28;102069;-63
2022/07/28 07:53:23;;;;;;;0.68;0.60;;;23.80;56.60;24.40;101006.00;;;;4957365;28;88064;-63
2022/07/28 07:55:50;;;;;;;0.75;0.73;;;24.00;56.40;24.50;101000.00;;;;4957585;28;88011;-62
2022/07/28 07:58:16;;;;;;;0.68;0.60;;;24.20;55.70;24.70;100994.00;;;;4958020;28;86967;-63
2022/07/28 08:00:42;;;;;;;2.15;0.80;;;24.30;55.20;24.80;100998.00;;;;4956715;28;88538;-63
2022/07/28 08:03:08;;;;;;;2.17;0.32;;;24.50;54.80;25.00;101001.00;;;;4956650;28;116988;-62
2022/07/28 08:05:33;;;;;;;0.57;0.40;;;24.60;54.10;25.10;100988.00;;;;4955982;28;111956;-63
2022/07/28 08:08:00;;;;;;;1.13;0.40;;;24.80;53.30;25.20;101000.00;;;;4957409;28;87850;-63
2022/07/28 08:10:25;;;;;;;1.00;0.40;;;24.80;52.80;25.20;101004.00;;;;4956877;28;99516;-64
2022/07/28 08:12:51;;;;;;;0.60;0.43;;;24.90;52.30;25.30;100993.00;;;;4955977;28;117270;-64
2022/07/28 08:15:17;;;;;;;3.22;0.55;;;25.00;50.60;25.30;101005.00;;;;4955730;28;108646;-63
2022/07/28 08:17:42;;;;;;;0.25;0.25;;;25.00;50.70;25.30;100995.00;;;;4957235;28;87690;-64
2022/07/28 08:20:09;;;;;;;0.25;0.25;;;25.10;50.50;25.40;100996.00;;;;4955871;28;118058;-64
2022/07/28 08:22:49;;;;;;;0.30;0.25;;;25.10;50.10;25.50;100999.00;;;;4956806;28;104220;-64
2022/07/28 08:25:15;;;;;;;0.40;0.32;;;25.20;49.80;25.60;100994.00;;;;4937579;28;87794;-64
2022/07/28 08:27:41;;;;;;;0.80;0.47;;;25.30;49.70;25.70;100997.00;;;;4937361;28;87770;-64
2022/07/28 08:30:08;;;;;;;1.02;0.55;;;25.40;48.80;25.90;101002.00;;;;4955311;28;103378;-64
2022/07/28 08:32:34;;;;;;;1.50;0.50;;;25.60;49.20;26.20;100998.00;;;;4956569;28;88838;-65
2022/07/28 08:35:00;;;;;;;0.93;0.43;;;25.80;48.00;26.40;101000.00;;;;4956219;28;95273;-64
2022/07/28 08:37:25;;;;;;;0.57;0.40;;;26.10;47.20;26.60;101007.00;;;;4956359;28;109680;-65
2022/07/28 08:39:51;;;;;;;0.93;0.55;;;26.20;46.00;26.60;101000.00;;;;4955624;28;117652;-65
2022/07/28 08:42:37;;;;;;;0.30;0.30;;;26.30;45.20;26.50;101005.00;;;;4955817;28;117713;-65
2022/07/28 08:45:07;;;;;;;2.97;0.30;;;26.30;45.40;26.70;100994.00;;;;4944066;28;87547;-65
2022/07/28 08:47:37;;;;;;;0.50;0.47;;;26.40;45.60;26.90;100995.00;;;;4956947;28;86876;-65
2022/07/28 08:50:03;;;;;;;0.90;0.40;;;26.60;45.20;27.20;101000.00;;;;4956364;28;88983;-65
2022/07/28 08:52:31;;;;;;;0.40;0.35;;;26.80;45.00;27.30;100997.00;;;;4955727;28;104045;-65
2022/07/28 08:55:01;;;;;;;0.28;0.28;;;27.00;44.30;27.50;100988.00;;;;4935772;28;102982;-65
2022/07/28 08:57:33;;;;;;;1.13;0.55;;;27.20;44.20;27.70;100993.00;;;;4936424;28;100254;-63
2022/07/28 09:00:00;;;;;;;0.70;0.40;;;27.40;43.60;27.80;100996.00;;;;4955449;28;91218;-64
2022/07/28 09:02:27;;;;;;;0.95;0.20;;;27.50;42.90;27.80;100997.00;;;;4937374;28;87880;-64
2022/07/28 09:04:58;;;;;;;0.90;0.63;;;27.60;42.10;27.80;100993.00;;;;4921739;28;87782;-64
2022/07/28 09:07:25;;;;;;;0.80;0.77;;;27.60;42.00;27.90;100996.00;;;;4936960;28;88105;-63
2022/07/28 09:09:52;;;;;;;1.55;0.50;;;27.60;41.60;28.00;100993.00;;;;4952430;28;118442;-63
2022/07/28 09:12:18;;;;;;;0.30;0.30;;;27.70;41.30;28.20;100993.00;;;;4956856;28;87766;-63
2022/07/28 09:14:44;;;;;;;0.28;0.28;;;27.80;40.90;28.20;100993.00;;;;4937719;28;88197;-63
2022/07/28 09:17:09;;;;;;;0.20;0.20;;;27.90;40.50;28.20;100991.00;;;;4937045;28;109382;-63
2022/07/28 09:19:36;;;;;;;1.75;0.70;;;27.90;39.30;28.00;100998.00;;;;4954271;28;118900;-63
2022/07/28 09:22:03;;;;;;;0.63;0.43;;;27.80;39.10;27.90;100999.00;;;;4937552;28;88725;-63
2022/07/28 09:24:39;;;;;;;2.25;0.85;;;27.70;38.30;27.60;101003.00;;;;4936985;28;89416;-63
2022/07/28 09:27:08;;;;;;;0.10;0.10;;;27.50;38.50;27.60;101001.00;;;;4956448;28;87906;-62
2022/07/28 09:29:36;;;;;;;1.95;0.38;;;27.40;39.30;27.80;101005.00;;;;4955865;28;88615;-64
2022/07/28 09:32:03;;;;;;;1.65;0.20;;;27.50;39.40;27.90;100993.00;;;;4955539;28;88468;-63
2022/07/28 09:34:44;;;;;;;6.93;0.52;;;27.60;39.00;28.10;100999.00;;;;4955355;28;103839;-63
2022/07/28 09:37:24;;;;;;;0.30;0.25;;;27.70;39.00;28.40;100994.00;;;;4955869;28;87113;-64
2022/07/28 09:39:51;;;;;;;7.45;0.57;;;27.90;38.00;28.30;100997.00;;;;4956446;28;88694;-63
2022/07/28 09:42:19;;;;;;;0.20;0.15;;;27.90;37.00;28.40;100992.00;;;;4944312;28;88035;-64
2022/07/28 09:45:02;;;;;;;0.77;0.15;;;28.00;38.10;28.70;101004.00;;;;4953685;28;88493;-64
2022/07/28 09:47:31;;;;;;;0.10;0.10;;;28.10;38.30;28.90;100990.00;;;;4945818;28;102705;-63
2022/07/28 09:49:57;;;;;;;0.45;0.40;;;28.40;38.20;29.20;100991.00;;;;4954947;28;90535;-63
2022/07/28 09:52:35;;;;;;;0.63;0.38;;;28.70;37.70;29.40;100991.00;;;;4954268;28;117413;-63
2022/07/28 09:55:03;;;;;;;0.45;0.22;;;28.90;35.70;29.10;100990.00;;;;4955723;28;88432;-63
2022/07/28 09:57:30;;;;;;;0.95;0.40;;;28.90;34.70;28.80;100988.00;;;;4956521;28;87784;-63
2022/07/28 09:59:56;;;;;;;1.20;0.55;;;28.50;35.30;28.50;100988.00;;;;4937060;28;88726;-63
2022/07/28 10:02:28;;;;;;;0.30;0.20;;;28.30;35.40;28.30;100985.00;;;;4955490;28;88985;-62
2022/07/28 10:04:54;;;;;;;4.07;0.50;;;28.00;36.30;28.10;100987.00;;;;4954121;28;88093;-63
2022/07/28 10:07:20;;;;;;;0.60;0.45;;;27.80;36.10;28.10;100985.00;;;;4956252;28;87836;-63
2022/07/28 10:10:03;;;;;;;0.40;0.30;;;27.70;36.10;28.00;100985.00;;;;4954897;28;89368;-65
2022/07/28 10:12:35;;;;;;;1.52;0.52;;;27.60;35.80;27.90;100984.00;;;;4953910;28;88702;-62
2022/07/28 10:18:04;;;;;;;0.47;0.40;;;27.50;36.10;28.10;100982.00;;;;4954065;28;87816;-65
2022/07/28 10:20:32;;;;;;;0.30;0.30;;;27.50;36.80;28.50;100985.00;;;;4954794;28;91731;-63
2022/07/28 10:23:03;;;;;;;1.02;0.50;;;27.80;37.00;28.90;100981.00;;;;4955338;28;87774;-63
2022/07/28 10:25:32;;;;;;;0.38;0.30;;;28.10;36.40;29.00;100982.00;;;;4935998;28;97994;-63
2022/07/28 10:28:02;;;;;;;0.40;0.30;;;28.30;35.50;29.10;100974.00;;;;4956010;28;87628;-63
2022/07/28 10:30:32;;;;;;;0.70;0.30;;;28.40;35.30;29.30;100978.00;;;;4954900;28;88464;-63
2022/07/28 10:32:58;;;;;;;5.38;0.55;;;28.60;36.00;29.80;100979.00;;;;4955007;28;88352;-65
2022/07/28 10:35:25;;;;;;;3.17;0.60;;;29.00;35.60;30.10;100974.00;;;;4936130;28;90247;-65
2022/07/28 10:37:58;;;;;;;1.33;0.55;;;29.30;34.50;30.30;100971.00;;;;4954214;28;87948;-63
2022/07/28 10:40:35;;;;;;;0.68;0.30;;;29.50;34.90;30.60;100969.00;;;;4946215;28;87886;-63
2022/07/28 10:43:02;;;;;;;1.25;0.47;;;29.80;34.70;30.90;100970.00;;;;4936745;28;88388;-63
2022/07/28 10:45:28;;;;;;;0.20;0.20;;;30.00;34.60;31.30;100961.00;;;;4927053;28;107884;-63
2022/07/28 10:47:54;;;;;;;0.47;0.47;;;30.40;34.10;31.50;100968.00;;;;4954210;28;106286;-63
2022/07/28 10:50:21;;;;;;;1.25;0.38;;;30.70;33.20;31.60;100958.00;;;;4953837;28;118091;-63
2022/07/28 10:52:48;;;;;;;1.75;0.22;;;30.80;32.50;31.40;100953.00;;;;4953707;28;110559;-63
2022/07/28 10:55:32;;;;;;;0.40;0.30;;;30.70;31.70;31.00;100951.00;;;;4939998;28;87722;-64
2022/07/28 10:58:18;;;;;;;2.35;0.68;;;30.50;31.70;30.90;100953.00;;;;4954744;28;87869;-63